Time;durP1;ratioP1;P1;durP2;ratioP2;P2;SDS_P1;SDS_P2;PMS_P1;PMS_P2;Temp;Humidity;BMP_temperature;BMP_pressure;BME280_temperature;BME280_humidity;BME280_pressure;Samples;Min_cycle;Max_cycle;Signal;HPM_P1;HPM_P2
2021/05/02 00:02:19;;;;;;;2.60;0.60;;;;;;;;;;5024370;28;20127;-56
2021/05/02 00:04:44;;;;;;;3.33;0.65;;;;;;;;;;5033932;28;20045;-52
2021/05/02 00:07:10;;;;;;;6.20;0.80;;;;;;;;;;5025885;28;20066;-57
2021/05/02 00:09:36;;;;;;;3.33;1.08;;;;;;;;;;5026494;28;20069;-57
2021/05/02 00:12:03;;;;;;;3.78;0.70;;;;;;;;;;5027888;28;20212;-55
2021/05/02 00:14:28;;;;;;;2.42;0.80;;;;;;;;;;5027992;28;20578;-55
2021/05/02 00:16:54;;;;;;;2.10;0.70;;;;;;;;;;5027149;28;20107;-57
2021/05/02 00:19:20;;;;;;;1.83;0.50;;;;;;;;;;5027184;28;20048;-57
2021/05/02 00:21:47;;;;;;;4.47;0.60;;;;;;;;;;5028104;28;20120;-56
2021/05/02 00:24:13;;;;;;;3.03;0.60;;;;;;;;;;5027525;28;20041;-56
2021/05/02 00:26:39;;;;;;;1.85;0.60;;;;;;;;;;5030917;28;20171;-56
2021/05/02 00:29:06;;;;;;;4.68;0.60;;;;;;;;;;5034040;28;20037;-57
2021/05/02 00:31:32;;;;;;;2.40;0.65;;;;;;;;;;5032400;28;20140;-57
2021/05/02 00:33:58;;;;;;;2.92;0.60;;;;;;;;;;5033041;28;20047;-54
2021/05/02 00:36:24;;;;;;;1.88;0.50;;;;;;;;;;5033075;28;20037;-55
2021/05/02 00:38:50;;;;;;;2.35;0.70;;;;;;;;;;5033746;28;20538;-53
2021/05/02 00:41:27;;;;;;;1.88;0.50;;;;;;;;;;5032873;28;20147;-54
2021/05/02 00:43:57;;;;;;;2.97;0.70;;;;;;;;;;5033277;28;20052;-57
2021/05/02 00:46:34;;;;;;;2.20;0.50;;;;;;;;;;5031411;28;20076;-56
2021/05/02 00:49:18;;;;;;;2.47;0.60;;;;;;;;;;5032193;28;20052;-56
2021/05/02 00:51:54;;;;;;;2.30;0.60;;;;;;;;;;5031541;28;20125;-54
2021/05/02 00:54:27;;;;;;;1.88;0.50;;;;;;;;;;5032331;28;20064;-56
2021/05/02 00:57:11;;;;;;;2.80;0.80;;;;;;;;;;5032024;28;20047;-53
2021/05/02 00:59:44;;;;;;;1.92;0.60;;;;;;;;;;5030625;28;20111;-56
2021/05/02 01:02:12;;;;;;;1.90;0.60;;;;;;;;;;5031408;28;20037;-53
2021/05/02 01:04:39;;;;;;;4.10;0.68;;;;;;;;;;5015019;28;20104;-53
2021/05/02 01:07:08;;;;;;;1.85;0.50;;;;;;;;;;5032861;28;20075;-54
2021/05/02 01:09:33;;;;;;;2.97;1.23;;;;;;;;;;5031949;28;20033;-55
2021/05/02 01:12:00;;;;;;;1.73;0.50;;;;;;;;;;5033206;28;20099;-52
2021/05/02 01:14:28;;;;;;;1.65;0.47;;;;;;;;;;5010059;28;20041;-55
2021/05/02 01:16:55;;;;;;;2.42;0.60;;;;;;;;;;5032070;28;20055;-56
2021/05/02 01:19:21;;;;;;;2.38;0.60;;;;;;;;;;5031420;28;20071;-58
2021/05/02 01:21:49;;;;;;;2.20;0.60;;;;;;;;;;5035248;28;20126;-56
2021/05/02 01:24:15;;;;;;;2.70;0.70;;;;;;;;;;5030719;28;20091;-56
2021/05/02 01:26:41;;;;;;;2.30;0.60;;;;;;;;;;5033196;28;20373;-55
2021/05/02 01:29:07;;;;;;;3.45;0.50;;;;;;;;;;5032045;28;20121;-56
2021/05/02 01:31:34;;;;;;;5.25;0.77;;;;;;;;;;5032300;28;20049;-56
2021/05/02 01:34:00;;;;;;;1.15;0.40;;;;;;;;;;5033538;28;20791;-54
2021/05/02 01:36:27;;;;;;;2.42;0.60;;;;;;;;;;5032230;28;20945;-55
2021/05/02 01:38:54;;;;;;;2.08;0.60;;;;;;;;;;5031269;28;20041;-55
2021/05/02 01:41:20;;;;;;;2.30;0.73;;;;;;;;;;5032937;28;20041;-54
2021/05/02 01:43:46;;;;;;;2.60;0.90;;;;;;;;;;5033954;28;20631;-55
2021/05/02 01:46:16;;;;;;;2.38;0.90;;;;;;;;;;5030957;28;20037;-56
2021/05/02 01:48:42;;;;;;;4.38;0.90;;;;;;;;;;5031274;28;20124;-56
2021/05/02 01:51:09;;;;;;;2.20;0.63;;;;;;;;;;5033339;28;20404;-53
2021/05/02 01:53:36;;;;;;;1.67;0.63;;;;;;;;;;5030773;28;20033;-55
2021/05/02 01:56:02;;;;;;;4.20;0.70;;;;;;;;;;5031442;28;20045;-55
2021/05/02 01:58:29;;;;;;;5.32;0.80;;;;;;;;;;5023915;28;20142;-55
2021/05/02 02:00:56;;;;;;;4.95;0.63;;;;;;;;;;5032435;28;20125;-55
2021/05/02 02:03:22;;;;;;;3.03;0.70;;;;;;;;;;5025349;28;20041;-56
2021/05/02 02:05:49;;;;;;;3.15;0.80;;;;;;;;;;5030456;28;20083;-55
2021/05/02 02:08:15;;;;;;;2.53;0.90;;;;;;;;;;5032109;28;20148;-57
2021/05/02 02:10:41;;;;;;;4.47;1.13;;;;;;;;;;5033518;28;20047;-56
2021/05/02 02:13:08;;;;;;;2.50;0.90;;;;;;;;;;5034009;28;20043;-57
2021/05/02 02:15:34;;;;;;;2.85;0.80;;;;;;;;;;5031667;28;20041;-54
2021/05/02 02:18:00;;;;;;;3.83;0.70;;;;;;;;;;5032691;28;20959;-56
2021/05/02 02:20:27;;;;;;;2.05;0.75;;;;;;;;;;5031813;28;20423;-56
2021/05/02 02:22:57;;;;;;;2.42;0.70;;;;;;;;;;5030273;28;20043;-56
2021/05/02 02:25:31;;;;;;;3.08;0.88;;;;;;;;;;5030252;28;21008;-56
2021/05/02 02:28:01;;;;;;;2.30;0.60;;;;;;;;;;5019649;28;20037;-56
2021/05/02 02:30:27;;;;;;;4.57;0.80;;;;;;;;;;5025348;28;20120;-54
2021/05/02 02:32:58;;;;;;;3.88;0.80;;;;;;;;;;5030237;28;20895;-54
2021/05/02 02:35:25;;;;;;;2.67;0.80;;;;;;;;;;5030608;28;22039;-56
2021/05/02 02:37:54;;;;;;;2.05;0.63;;;;;;;;;;5030306;28;20139;-53
2021/05/02 02:40:21;;;;;;;2.75;0.70;;;;;;;;;;5031199;28;20033;-55
2021/05/02 02:42:47;;;;;;;3.25;0.90;;;;;;;;;;5033477;28;20076;-55
2021/05/02 02:45:14;;;;;;;2.08;0.70;;;;;;;;;;5029848;28;20041;-56
2021/05/02 02:47:44;;;;;;;1.95;0.65;;;;;;;;;;5032022;28;20641;-53
2021/05/02 02:50:12;;;;;;;4.43;0.80;;;;;;;;;;5033862;28;20079;-56
2021/05/02 02:52:42;;;;;;;3.75;0.80;;;;;;;;;;5029045;28;20054;-54
2021/05/02 02:55:09;;;;;;;2.33;0.70;;;;;;;;;;5032623;28;20441;-53
2021/05/02 02:57:42;;;;;;;2.65;0.73;;;;;;;;;;5031959;28;20595;-56
2021/05/02 03:00:08;;;;;;;3.00;0.73;;;;;;;;;;5030284;28;20435;-55
2021/05/02 03:02:36;;;;;;;3.05;0.68;;;;;;;;;;5030470;28;20127;-55
2021/05/02 03:05:03;;;;;;;2.42;0.70;;;;;;;;;;5029784;28;20097;-51
2021/05/02 03:07:31;;;;;;;2.22;0.70;;;;;;;;;;5031389;28;20040;-53
2021/05/02 03:09:57;;;;;;;2.00;0.70;;;;;;;;;;5047525;28;20126;-54
2021/05/02 03:12:23;;;;;;;4.75;0.70;;;;;;;;;;5032128;28;20091;-55
2021/05/02 03:14:50;;;;;;;1.80;0.60;;;;;;;;;;5030374;28;20036;-54
2021/05/02 03:17:28;;;;;;;3.13;0.70;;;;;;;;;;5032421;28;20126;-55
2021/05/02 03:19:57;;;;;;;2.30;0.75;;;;;;;;;;5030198;28;20071;-56
2021/05/02 03:22:30;;;;;;;2.67;0.82;;;;;;;;;;5034924;28;20063;-55
2021/05/02 03:25:00;;;;;;;3.15;0.80;;;;;;;;;;5022153;28;21383;-55
2021/05/02 03:27:27;;;;;;;3.65;0.93;;;;;;;;;;5028840;28;20034;-56
2021/05/02 03:29:55;;;;;;;7.55;1.00;;;;;;;;;;5030823;28;20063;-55
2021/05/02 03:32:23;;;;;;;4.68;0.70;;;;;;;;;;5028852;28;20063;-55
2021/05/02 03:34:50;;;;;;;2.47;1.00;;;;;;;;;;5031375;28;20037;-54
2021/05/02 03:37:19;;;;;;;3.70;0.90;;;;;;;;;;5031846;28;20068;-54
2021/05/02 03:39:48;;;;;;;2.53;0.80;;;;;;;;;;5029799;28;20067;-53
2021/05/02 03:42:14;;;;;;;3.30;0.70;;;;;;;;;;5030537;28;20838;-54
2021/05/02 03:44:40;;;;;;;4.15;0.82;;;;;;;;;;5027404;28;20619;-53
2021/05/02 03:47:06;;;;;;;4.70;0.88;;;;;;;;;;5029292;28;20040;-53
2021/05/02 03:49:32;;;;;;;4.63;0.70;;;;;;;;;;5029305;28;20715;-57
2021/05/02 03:51:58;;;;;;;3.28;0.95;;;;;;;;;;5032040;28;20052;-53
2021/05/02 03:54:24;;;;;;;2.75;0.88;;;;;;;;;;5028249;28;20738;-57
2021/05/02 03:56:49;;;;;;;3.45;1.10;;;;;;;;;;5031082;28;20079;-57
2021/05/02 03:59:15;;;;;;;2.80;0.73;;;;;;;;;;5029635;28;20049;-56
2021/05/02 04:01:50;;;;;;;3.45;1.00;;;;;;;;;;5027808;28;20060;-53
2021/05/02 04:04:17;;;;;;;2.90;0.70;;;;;;;;;;5029474;28;20044;-53
2021/05/02 04:06:43;;;;;;;3.83;0.77;;;;;;;;;;5027638;28;20080;-56
2021/05/02 04:09:10;;;;;;;4.40;0.70;;;;;;;;;;5010278;28;20151;-55
2021/05/02 04:11:36;;;;;;;2.30;0.70;;;;;;;;;;5029104;28;20053;-53
2021/05/02 04:14:03;;;;;;;2.22;0.70;;;;;;;;;;5029576;28;20056;-54
2021/05/02 04:16:29;;;;;;;2.72;0.70;;;;;;;;;;5028002;28;20032;-55
2021/05/02 04:18:55;;;;;;;2.83;0.90;;;;;;;;;;5027343;28;20511;-52
2021/05/02 04:21:21;;;;;;;2.28;0.70;;;;;;;;;;5009464;28;20029;-53
2021/05/02 04:23:46;;;;;;;2.30;0.80;;;;;;;;;;5029005;28;20098;-52
2021/05/02 04:26:12;;;;;;;2.78;0.77;;;;;;;;;;5029916;28;20049;-56
2021/05/02 04:28:39;;;;;;;3.40;0.80;;;;;;;;;;5027083;28;20728;-55
2021/05/02 04:31:04;;;;;;;1.67;0.50;;;;;;;;;;5028481;28;20051;-54
2021/05/02 04:33:30;;;;;;;3.25;0.82;;;;;;;;;;5011034;28;20033;-55
2021/05/02 04:35:56;;;;;;;3.15;0.90;;;;;;;;;;5007694;28;20056;-55
2021/05/02 04:38:22;;;;;;;3.38;0.80;;;;;;;;;;5026504;28;20055;-54
2021/05/02 04:40:48;;;;;;;3.20;0.85;;;;;;;;;;5005704;28;20036;-56
2021/05/02 04:43:13;;;;;;;4.00;0.88;;;;;;;;;;5029291;28;20162;-54
2021/05/02 04:45:39;;;;;;;2.05;0.70;;;;;;;;;;5027964;28;20051;-55
2021/05/02 04:48:05;;;;;;;2.50;0.70;;;;;;;;;;5031065;28;20049;-53
2021/05/02 04:50:31;;;;;;;5.40;0.85;;;;;;;;;;5029571;28;20045;-53
2021/05/02 04:53:00;;;;;;;4.38;0.68;;;;;;;;;;5028777;28;20048;-56
2021/05/02 04:55:27;;;;;;;2.50;0.80;;;;;;;;;;5028732;28;20558;-54
2021/05/02 04:57:53;;;;;;;4.82;0.80;;;;;;;;;;5029707;28;20083;-54
2021/05/02 05:00:19;;;;;;;3.25;0.80;;;;;;;;;;5028084;28;20033;-54
2021/05/02 05:02:45;;;;;;;10.93;0.80;;;;;;;;;;5028958;28;20056;-53
2021/05/02 05:05:11;;;;;;;2.80;0.80;;;;;;;;;;5029385;28;20037;-53
2021/05/02 05:07:36;;;;;;;3.03;0.70;;;;;;;;;;5028262;28;20038;-54
2021/05/02 05:10:02;;;;;;;5.10;1.05;;;;;;;;;;5028018;28;20048;-56
2021/05/02 05:12:28;;;;;;;4.15;1.50;;;;;;;;;;5029448;28;20095;-56
2021/05/02 05:14:54;;;;;;;4.82;0.68;;;;;;;;;;5032668;28;20111;-54
2021/05/02 05:17:20;;;;;;;4.15;0.73;;;;;;;;;;5032946;28;20045;-54
2021/05/02 05:19:46;;;;;;;1.73;0.57;;;;;;;;;;5033131;28;20041;-56
2021/05/02 05:22:11;;;;;;;3.58;0.60;;;;;;;;;;5034104;28;20153;-55
2021/05/02 05:24:38;;;;;;;2.92;0.70;;;;;;;;;;5032597;28;20083;-57
2021/05/02 05:27:04;;;;;;;1.92;0.50;;;;;;;;;;5032605;28;20598;-56
2021/05/02 05:29:30;;;;;;;1.90;0.50;;;;;;;;;;5032042;28;20296;-54
2021/05/02 05:31:55;;;;;;;1.92;0.50;;;;;;;;;;5033168;28;20045;-56
2021/05/02 05:34:21;;;;;;;2.80;0.60;;;;;;;;;;5032331;28;20068;-56
2021/05/02 05:36:47;;;;;;;3.35;0.80;;;;;;;;;;5015921;28;20127;-54
2021/05/02 05:39:13;;;;;;;1.77;0.57;;;;;;;;;;5033072;28;20053;-56
2021/05/02 05:41:39;;;;;;;1.95;0.57;;;;;;;;;;5034636;28;20613;-56
2021/05/02 05:44:04;;;;;;;2.72;0.80;;;;;;;;;;5033290;28;20061;-57
2021/05/02 05:46:30;;;;;;;1.63;0.60;;;;;;;;;;5031418;28;20041;-54
2021/05/02 05:48:56;;;;;;;2.47;0.68;;;;;;;;;;5033114;28;20045;-56
2021/05/02 05:51:22;;;;;;;2.25;0.65;;;;;;;;;;5026856;28;20649;-56
2021/05/02 05:53:48;;;;;;;2.30;0.80;;;;;;;;;;5030635;28;20041;-55
2021/05/02 05:56:13;;;;;;;2.60;0.60;;;;;;;;;;5031841;28;20518;-56
2021/05/02 05:58:39;;;;;;;2.00;0.50;;;;;;;;;;5030888;28;20048;-57
2021/05/02 06:01:05;;;;;;;2.10;0.70;;;;;;;;;;5032452;28;20383;-55
2021/05/02 06:03:31;;;;;;;2.10;0.50;;;;;;;;;;5030461;28;20048;-54
2021/05/02 06:05:57;;;;;;;1.55;0.50;;;;;;;;;;5031517;28;20063;-55
2021/05/02 06:08:22;;;;;;;3.10;0.60;;;;;;;;;;5031655;28;20056;-56
2021/05/02 06:10:48;;;;;;;1.65;0.47;;;;;;;;;;5032903;28;20048;-56
2021/05/02 06:13:20;;;;;;;1.13;0.50;;;;;;;;;;5033600;28;20810;-56
2021/05/02 06:15:46;;;;;;;1.25;0.40;;;;;;;;;;5031305;28;20065;-55
2021/05/02 06:18:12;;;;;;;1.77;0.60;;;;;;;;;;5030429;28;20041;-56
2021/05/02 06:20:38;;;;;;;0.98;0.40;;;;;;;;;;5032517;28;20041;-55
2021/05/02 06:23:04;;;;;;;1.67;0.50;;;;;;;;;;5032658;28;20119;-55
2021/05/02 06:25:30;;;;;;;2.00;0.50;;;;;;;;;;5029097;28;20040;-56
2021/05/02 06:27:56;;;;;;;2.88;0.50;;;;;;;;;;5031460;28;20910;-54
2021/05/02 06:30:25;;;;;;;1.52;0.50;;;;;;;;;;5030910;28;20503;-54
2021/05/02 06:32:51;;;;;;;1.48;0.50;;;;;;;;;;5031259;28;20057;-55
2021/05/02 06:35:17;;;;;;;1.98;0.60;;;;;;;;;;5030443;28;20083;-55
2021/05/02 06:37:43;;;;;;;1.88;0.50;;;;;;;;;;5032703;28;20059;-56
2021/05/02 06:40:09;;;;;;;1.63;0.50;;;;;;;;;;5032096;28;20139;-55
2021/05/02 06:42:35;;;;;;;2.08;0.60;;;;;;;;;;5030492;28;20466;-55
2021/05/02 06:45:01;;;;;;;4.05;0.52;;;;;;;;;;5029668;28;20052;-57
2021/05/02 06:47:27;;;;;;;1.58;0.50;;;;;;;;;;5030079;28;20072;-55
2021/05/02 06:49:52;;;;;;;2.13;0.50;;;;;;;;;;5031935;28;20077;-56
2021/05/02 06:52:18;;;;;;;1.98;0.50;;;;;;;;;;5030226;28;20063;-54
2021/05/02 06:54:45;;;;;;;2.30;0.50;;;;;;;;;;5032032;28;20118;-56
2021/05/02 06:57:11;;;;;;;1.50;0.50;;;;;;;;;;5031486;28;20045;-56
2021/05/02 06:59:37;;;;;;;2.80;0.60;;;;;;;;;;5031917;28;20049;-56
2021/05/02 07:02:03;;;;;;;1.52;0.50;;;;;;;;;;5013845;28;20048;-54
2021/05/02 07:04:34;;;;;;;2.63;0.50;;;;;;;;;;5031950;28;20044;-54
2021/05/02 07:07:00;;;;;;;1.50;0.40;;;;;;;;;;5032029;28;20123;-57
2021/05/02 07:09:26;;;;;;;3.95;0.60;;;;;;;;;;5030582;28;20029;-55
2021/05/02 07:11:51;;;;;;;1.42;0.40;;;;;;;;;;5030632;28;20056;-55
2021/05/02 07:14:17;;;;;;;2.00;0.50;;;;;;;;;;5030417;28;20041;-55
2021/05/02 07:16:43;;;;;;;2.10;0.55;;;;;;;;;;5030930;28;20063;-57
2021/05/02 07:19:09;;;;;;;2.60;0.70;;;;;;;;;;5031801;28;20131;-56
2021/05/02 07:21:35;;;;;;;2.08;0.60;;;;;;;;;;5030738;28;20052;-57
2021/05/02 07:24:01;;;;;;;4.57;0.90;;;;;;;;;;5029841;28;20047;-57
2021/05/02 07:26:27;;;;;;;2.03;0.60;;;;;;;;;;5029138;28;20029;-54
2021/05/02 07:28:53;;;;;;;2.20;0.60;;;;;;;;;;5031695;28;20051;-56
2021/05/02 07:31:19;;;;;;;2.15;0.50;;;;;;;;;;5028916;28;20059;-56
2021/05/02 07:33:45;;;;;;;1.65;0.55;;;;;;;;;;5030860;28;20470;-53
2021/05/02 07:36:12;;;;;;;2.00;0.50;;;;;;;;;;5031734;28;20044;-55
2021/05/02 07:38:38;;;;;;;1.17;0.40;;;;;;;;;;5029756;28;20069;-54
2021/05/02 07:41:04;;;;;;;1.85;0.60;;;;;;;;;;5031973;28;20140;-55
2021/05/02 07:43:31;;;;;;;1.42;0.43;;;;;;;;;;5028141;28;20422;-55
2021/05/02 07:45:57;;;;;;;1.95;0.50;;;;;;;;;;5030988;28;20061;-56
2021/05/02 07:48:22;;;;;;;2.05;0.70;;;;;;;;;;5020538;28;20682;-57
2021/05/02 07:50:48;;;;;;;1.42;0.43;;;;;;;;;;5044745;28;20072;-55
2021/05/02 07:53:16;;;;;;;1.75;0.50;;;;;;;;;;5030199;28;20083;-58
2021/05/02 07:55:42;;;;;;;2.88;0.55;;;;;;;;;;5029506;28;20037;-55
2021/05/02 07:58:08;;;;;;;1.70;0.50;;;;;;;;;;5011785;28;20487;-56
2021/05/02 08:00:33;;;;;;;1.58;0.50;;;;;;;;;;5031091;28;20475;-55
2021/05/02 08:02:59;;;;;;;2.00;0.50;;;;;;;;;;5030686;28;20091;-56
2021/05/02 08:05:25;;;;;;;2.20;0.50;;;;;;;;;;5028115;28;20049;-56
2021/05/02 08:07:51;;;;;;;2.20;0.50;;;;;;;;;;5031475;28;20063;-55
2021/05/02 08:10:18;;;;;;;1.90;0.60;;;;;;;;;;5030019;28;20041;-52
2021/05/02 08:12:44;;;;;;;2.17;0.50;;;;;;;;;;5012159;28;20875;-52
2021/05/02 08:15:10;;;;;;;2.10;0.60;;;;;;;;;;5029800;28;20047;-54
2021/05/02 08:17:36;;;;;;;1.98;0.57;;;;;;;;;;5028926;28;20072;-56
2021/05/02 08:20:02;;;;;;;1.98;0.50;;;;;;;;;;5030767;28;20769;-54
2021/05/02 08:22:28;;;;;;;4.25;0.60;;;;;;;;;;5043574;28;20638;-56
2021/05/02 08:24:54;;;;;;;1.85;0.50;;;;;;;;;;5029460;28;20041;-55
2021/05/02 08:27:20;;;;;;;1.45;0.50;;;;;;;;;;5027540;28;20037;-57
2021/05/02 08:29:46;;;;;;;1.73;0.50;;;;;;;;;;5030694;28;20045;-54
2021/05/02 08:32:11;;;;;;;3.05;0.60;;;;;;;;;;5030133;28;20066;-53
2021/05/02 08:34:37;;;;;;;1.77;0.52;;;;;;;;;;5028554;28;20061;-55
2021/05/02 08:37:06;;;;;;;1.25;0.50;;;;;;;;;;5031027;28;20050;-56
2021/05/02 08:39:32;;;;;;;1.85;0.52;;;;;;;;;;5027992;28;20095;-56
2021/05/02 08:41:58;;;;;;;1.15;0.40;;;;;;;;;;5029472;28;20038;-56
2021/05/02 08:44:24;;;;;;;1.77;0.50;;;;;;;;;;5027841;28;21040;-56
2021/05/02 08:46:50;;;;;;;2.67;0.50;;;;;;;;;;5031159;28;20087;-53
2021/05/02 08:49:18;;;;;;;1.40;0.40;;;;;;;;;;5032828;28;20040;-53
2021/05/02 08:51:44;;;;;;;1.25;0.40;;;;;;;;;;5032284;28;20057;-56
2021/05/02 08:54:10;;;;;;;1.75;0.60;;;;;;;;;;5033313;28;20040;-56
2021/05/02 08:56:36;;;;;;;2.00;0.50;;;;;;;;;;5033588;28;20083;-55
2021/05/02 08:59:01;;;;;;;1.48;0.40;;;;;;;;;;5033612;28;20766;-56
2021/05/02 09:01:28;;;;;;;1.90;0.57;;;;;;;;;;5032575;28;20033;-56
2021/05/02 09:03:54;;;;;;;2.60;0.60;;;;;;;;;;5032384;28;20507;-56
2021/05/02 09:06:21;;;;;;;1.90;0.50;;;;;;;;;;5034220;28;20060;-55
2021/05/02 09:08:48;;;;;;;2.15;0.60;;;;;;;;;;5032014;28;20037;-55
2021/05/02 09:11:15;;;;;;;1.70;0.50;;;;;;;;;;5031677;28;20053;-54
2021/05/02 09:13:51;;;;;;;1.77;0.50;;;;;;;;;;5032152;28;20038;-55
2021/05/02 09:16:17;;;;;;;1.27;0.40;;;;;;;;;;5017830;28;20053;-56
2021/05/02 09:18:46;;;;;;;2.55;0.60;;;;;;;;;;5032619;28;20102;-54
2021/05/02 09:21:26;;;;;;;1.70;0.50;;;;;;;;;;5034459;28;20083;-56
2021/05/02 09:23:54;;;;;;;1.25;0.50;;;;;;;;;;5030371;28;20061;-56
2021/05/02 09:26:21;;;;;;;1.20;0.60;;;;;;;;;;5032280;28;20135;-53
2021/05/02 09:28:48;;;;;;;1.40;0.50;;;;;;;;;;5032989;28;20047;-57
2021/05/02 09:31:18;;;;;;;1.23;0.40;;;;;;;;;;5032979;28;20167;-54
2021/05/02 09:33:45;;;;;;;1.55;0.50;;;;;;;;;;5033078;28;20152;-54
2021/05/02 09:36:14;;;;;;;1.48;0.40;;;;;;;;;;5032232;28;20040;-55
2021/05/02 09:38:40;;;;;;;1.85;0.50;;;;;;;;;;5033754;28;20047;-53
2021/05/02 09:41:07;;;;;;;1.88;0.50;;;;;;;;;;5034841;28;20095;-56
2021/05/02 09:43:37;;;;;;;1.90;0.50;;;;;;;;;;5031739;28;20056;-54
2021/05/02 09:46:30;;;;;;;1.60;0.50;;;;;;;;;;5010619;28;20053;-55
2021/05/02 09:49:00;;;;;;;1.67;0.50;;;;;;;;;;5026940;28;20045;-57
2021/05/02 09:51:27;;;;;;;1.75;0.50;;;;;;;;;;5031915;28;20060;-56
2021/05/02 09:54:00;;;;;;;1.58;0.50;;;;;;;;;;5032446;28;20037;-54
2021/05/02 09:56:37;;;;;;;1.83;0.60;;;;;;;;;;5030871;28;20052;-56
2021/05/02 09:59:03;;;;;;;2.22;0.60;;;;;;;;;;5030338;28;20048;-54
2021/05/02 10:01:29;;;;;;;1.75;0.52;;;;;;;;;;5030533;28;20045;-57
2021/05/02 10:03:56;;;;;;;2.40;0.60;;;;;;;;;;5032787;28;20077;-55
2021/05/02 10:06:29;;;;;;;2.40;0.50;;;;;;;;;;5032959;28;20116;-56
2021/05/02 10:08:55;;;;;;;2.00;0.60;;;;;;;;;;5033733;28;20083;-55
2021/05/02 10:11:23;;;;;;;1.58;0.50;;;;;;;;;;5031079;28;20147;-56
2021/05/02 10:13:49;;;;;;;1.88;0.57;;;;;;;;;;5032080;28;20136;-53
2021/05/02 10:16:15;;;;;;;0.88;0.40;;;;;;;;;;5031693;28;20033;-52
2021/05/02 10:18:41;;;;;;;1.55;0.50;;;;;;;;;;5030428;28;20033;-55
2021/05/02 10:21:08;;;;;;;1.80;0.50;;;;;;;;;;5031790;28;20044;-53
2021/05/02 10:23:38;;;;;;;3.05;0.60;;;;;;;;;;5031707;28;20512;-56
2021/05/02 10:26:06;;;;;;;2.53;0.60;;;;;;;;;;5033425;28;20033;-56
2021/05/02 10:28:32;;;;;;;2.20;0.55;;;;;;;;;;5033046;28;20052;-57
2021/05/02 10:31:02;;;;;;;1.40;0.50;;;;;;;;;;5032821;28;20526;-56
2021/05/02 10:33:35;;;;;;;1.60;0.50;;;;;;;;;;5031825;28;20083;-55
2021/05/02 10:36:08;;;;;;;2.60;0.60;;;;;;;;;;5032202;28;20041;-55
2021/05/02 10:38:43;;;;;;;1.75;0.50;;;;;;;;;;5031253;28;20045;-56
2021/05/02 10:41:21;;;;;;;1.70;0.52;;;;;;;;;;5032673;28;20037;-57
2021/05/02 10:43:47;;;;;;;1.80;0.50;;;;;;;;;;5031215;28;20052;-56
2021/05/02 10:46:31;;;;;;;2.05;0.47;;;;;;;;;;5032823;28;20036;-55
2021/05/02 10:48:57;;;;;;;1.75;0.50;;;;;;;;;;5032454;28;20218;-56
2021/05/02 10:51:24;;;;;;;1.38;0.50;;;;;;;;;;5016860;28;20060;-55
2021/05/02 10:54:00;;;;;;;1.88;0.60;;;;;;;;;;5031613;28;20091;-56
2021/05/02 10:56:40;;;;;;;2.00;0.60;;;;;;;;;;5032318;28;20617;-56
2021/05/02 10:59:06;;;;;;;1.77;0.52;;;;;;;;;;5033439;28;20048;-56
2021/05/02 11:01:32;;;;;;;1.60;0.47;;;;;;;;;;5032239;28;20037;-57
2021/05/02 11:03:58;;;;;;;1.58;0.50;;;;;;;;;;5033840;28;20029;-56
2021/05/02 11:06:39;;;;;;;2.40;0.63;;;;;;;;;;5035403;28;20037;-53
2021/05/02 11:09:11;;;;;;;1.58;0.50;;;;;;;;;;5035056;28;20068;-53
2021/05/02 11:11:38;;;;;;;2.20;0.63;;;;;;;;;;5033656;28;20049;-55
2021/05/02 11:14:22;;;;;;;2.83;0.50;;;;;;;;;;5034208;28;20067;-54
2021/05/02 11:16:49;;;;;;;1.85;0.60;;;;;;;;;;5032655;28;20487;-53
2021/05/02 11:19:19;;;;;;;1.45;0.50;;;;;;;;;;5031869;28;20144;-57
2021/05/02 11:21:52;;;;;;;0.95;0.47;;;;;;;;;;5030128;28;20142;-56
2021/05/02 11:24:19;;;;;;;1.55;0.50;;;;;;;;;;5031094;28;20037;-54
2021/05/02 11:26:48;;;;;;;1.67;0.50;;;;;;;;;;5031133;28;20508;-54
2021/05/02 11:29:20;;;;;;;2.85;0.60;;;;;;;;;;5031991;28;20169;-56
2021/05/02 11:31:46;;;;;;;2.03;0.60;;;;;;;;;;5032018;28;20061;-54
2021/05/02 11:34:12;;;;;;;1.98;0.60;;;;;;;;;;5013610;28;20033;-56
2021/05/02 11:36:42;;;;;;;1.75;0.55;;;;;;;;;;5031363;28;20107;-53
2021/05/02 11:39:28;;;;;;;2.90;0.60;;;;;;;;;;5032176;28;20626;-57
2021/05/02 11:42:01;;;;;;;1.98;0.60;;;;;;;;;;5016480;28;20116;-54
2021/05/02 11:44:27;;;;;;;1.33;0.50;;;;;;;;;;5010311;28;20033;-54
2021/05/02 11:46:53;;;;;;;1.92;0.60;;;;;;;;;;5009895;28;20049;-56
2021/05/02 11:49:19;;;;;;;3.25;0.70;;;;;;;;;;5010812;28;20048;-56
2021/05/02 11:51:55;;;;;;;4.05;0.70;;;;;;;;;;5008904;28;20108;-54
2021/05/02 11:54:20;;;;;;;2.20;0.70;;;;;;;;;;5010217;28;20041;-56
2021/05/02 11:56:50;;;;;;;1.85;0.63;;;;;;;;;;5009388;28;20022;-56
2021/05/02 11:59:16;;;;;;;2.60;0.80;;;;;;;;;;5009192;28;20080;-54
2021/05/02 12:01:45;;;;;;;1.88;0.60;;;;;;;;;;5007297;28;20172;-55
2021/05/02 12:04:16;;;;;;;2.72;0.70;;;;;;;;;;5004839;28;20076;-56
2021/05/02 12:06:42;;;;;;;5.70;0.80;;;;;;;;;;5000802;28;20049;-56
2021/05/02 12:09:15;;;;;;;1.92;0.68;;;;;;;;;;5011332;28;20124;-54
2021/05/02 12:11:42;;;;;;;2.50;0.70;;;;;;;;;;5009329;28;20049;-54
2021/05/02 12:14:08;;;;;;;2.80;0.60;;;;;;;;;;5009738;28;20120;-53
2021/05/02 12:16:34;;;;;;;2.17;0.63;;;;;;;;;;5006335;28;21072;-54
2021/05/02 12:19:04;;;;;;;4.13;0.73;;;;;;;;;;5001727;28;20042;-52
2021/05/02 12:21:46;;;;;;;2.40;0.70;;;;;;;;;;4988560;28;20599;-53
2021/05/02 12:24:13;;;;;;;1.95;0.65;;;;;;;;;;5013573;28;20042;-54
2021/05/02 12:26:49;;;;;;;1.80;0.60;;;;;;;;;;5013031;28;20064;-53
2021/05/02 12:29:15;;;;;;;1.88;0.60;;;;;;;;;;5013380;28;20120;-56
2021/05/02 12:31:42;;;;;;;2.20;0.60;;;;;;;;;;5013671;28;20053;-53
2021/05/02 12:34:08;;;;;;;2.20;0.60;;;;;;;;;;5013152;28;20044;-53
2021/05/02 12:36:34;;;;;;;2.30;0.68;;;;;;;;;;5012797;28;20128;-55
2021/05/02 12:39:01;;;;;;;2.00;0.60;;;;;;;;;;5013426;28;20034;-56
2021/05/02 12:41:27;;;;;;;2.13;0.70;;;;;;;;;;5013377;28;20045;-56
2021/05/02 12:43:53;;;;;;;1.80;0.60;;;;;;;;;;5015425;28;20049;-56
2021/05/02 12:46:37;;;;;;;1.90;0.60;;;;;;;;;;5032042;28;20391;-56
2021/05/02 12:49:27;;;;;;;2.03;0.70;;;;;;;;;;4985842;28;20035;-56
2021/05/02 12:51:53;;;;;;;2.50;0.70;;;;;;;;;;4984269;28;20052;-56
2021/05/02 12:54:20;;;;;;;2.50;0.80;;;;;;;;;;4983873;28;20544;-56
2021/05/02 12:56:59;;;;;;;2.17;0.70;;;;;;;;;;4992836;28;20589;-56
2021/05/02 12:59:35;;;;;;;1.92;0.57;;;;;;;;;;4985000;28;20033;-55
2021/05/02 13:02:02;;;;;;;1.83;0.50;;;;;;;;;;4985721;28;20587;-54
2021/05/02 13:04:46;;;;;;;2.20;0.70;;;;;;;;;;4983932;28;20041;-54
2021/05/02 13:07:16;;;;;;;2.03;0.60;;;;;;;;;;4983969;28;20034;-53
2021/05/02 13:09:43;;;;;;;2.25;0.60;;;;;;;;;;4994445;28;20670;-52
2021/05/02 13:12:09;;;;;;;2.05;0.60;;;;;;;;;;4987161;28;20054;-55
2021/05/02 13:14:35;;;;;;;3.92;1.50;;;;;;;;;;4984186;28;20073;-55
2021/05/02 13:17:08;;;;;;;2.40;0.70;;;;;;;;;;4984852;28;20038;-53
2021/05/02 13:19:35;;;;;;;2.53;0.60;;;;;;;;;;4983800;28;20053;-52
2021/05/02 13:22:19;;;;;;;2.03;0.60;;;;;;;;;;4983967;28;20037;-52
2021/05/02 13:24:54;;;;;;;3.90;0.70;;;;;;;;;;4993784;28;20212;-55
2021/05/02 13:27:32;;;;;;;1.77;0.50;;;;;;;;;;5010540;28;20064;-53
2021/05/02 13:29:58;;;;;;;2.92;0.50;;;;;;;;;;5031259;28;20419;-52
2021/05/02 13:32:23;;;;;;;2.30;0.60;;;;;;;;;;5030502;28;20065;-55
2021/05/02 13:34:49;;;;;;;2.03;0.60;;;;;;;;;;5030784;28;20099;-54
2021/05/02 13:37:15;;;;;;;2.33;0.60;;;;;;;;;;5032527;28;20079;-55
2021/05/02 13:39:42;;;;;;;2.10;0.70;;;;;;;;;;5029437;28;20056;-54
2021/05/02 13:42:08;;;;;;;2.17;0.80;;;;;;;;;;5032834;28;20056;-54
2021/05/02 13:44:34;;;;;;;3.88;0.60;;;;;;;;;;5031853;28;20066;-56
2021/05/02 13:47:00;;;;;;;1.55;0.50;;;;;;;;;;5031088;28;20525;-56
2021/05/02 13:49:26;;;;;;;3.00;0.60;;;;;;;;;;5030566;28;20043;-56
2021/05/02 13:51:52;;;;;;;2.38;0.60;;;;;;;;;;5031631;28;20052;-52
2021/05/02 13:54:19;;;;;;;1.55;0.50;;;;;;;;;;5030807;28;20043;-55
2021/05/02 13:56:46;;;;;;;3.70;0.60;;;;;;;;;;5014632;28;20041;-52
2021/05/02 13:59:11;;;;;;;1.67;0.50;;;;;;;;;;5014191;28;20056;-56
2021/05/02 14:01:37;;;;;;;2.72;0.60;;;;;;;;;;5030355;28;20045;-55
2021/05/02 14:04:03;;;;;;;2.85;0.57;;;;;;;;;;5031199;28;22150;-56
2021/05/02 14:06:30;;;;;;;1.60;0.55;;;;;;;;;;5030262;28;20032;-56
2021/05/02 14:08:56;;;;;;;1.23;0.50;;;;;;;;;;5031462;28;20068;-55
2021/05/02 14:11:23;;;;;;;1.70;0.50;;;;;;;;;;5031387;28;20068;-55
2021/05/02 14:13:49;;;;;;;4.10;1.40;;;;;;;;;;5032496;28;20041;-54
2021/05/02 14:16:15;;;;;;;1.88;0.52;;;;;;;;;;5032870;28;20040;-53
2021/05/02 14:18:40;;;;;;;2.10;0.70;;;;;;;;;;5030926;28;20041;-53
2021/05/02 14:21:06;;;;;;;2.25;0.60;;;;;;;;;;5032838;28;20036;-56
2021/05/02 14:23:32;;;;;;;3.67;0.80;;;;;;;;;;5029913;28;20063;-57
2021/05/02 14:25:59;;;;;;;3.60;0.80;;;;;;;;;;5032781;28;20130;-57
2021/05/02 14:28:25;;;;;;;3.03;0.73;;;;;;;;;;5030612;28;20044;-56
2021/05/02 14:30:51;;;;;;;2.20;0.70;;;;;;;;;;5032083;28;20041;-56
2021/05/02 14:33:17;;;;;;;3.30;1.20;;;;;;;;;;5033341;28;20060;-55
2021/05/02 14:35:43;;;;;;;2.63;0.80;;;;;;;;;;5029142;28;20021;-57
2021/05/02 14:38:09;;;;;;;2.25;0.77;;;;;;;;;;5031633;28;20067;-55
2021/05/02 14:40:35;;;;;;;3.67;1.00;;;;;;;;;;5014316;28;20032;-57
2021/05/02 14:43:01;;;;;;;3.28;0.90;;;;;;;;;;5033590;28;20103;-56
2021/05/02 14:45:27;;;;;;;2.28;0.80;;;;;;;;;;5033246;28;20406;-57
2021/05/02 14:47:53;;;;;;;2.38;1.00;;;;;;;;;;5032683;28;20514;-56